Whittlesey, United Kingdom
Current Conditions -  °F | °C
As of 2:50 AM on Saturday 29 Nov 2014 (Local Time) from EGXT Reporting Station
Haze Haze  
Wind Chill: 44°   Ceiling: 15000
Heat Index: 48°   Visibility: 2mi
Dew Point: 48°   Wind: 9mph
Humidity: 100%   Direction: 40°NE
Pressure: 29.77"   Gusts: NA
Location:  52.56°N, 0.13°W
Report Text: EGXT 290250Z AUTO 04008KT 3200 BR FEW001/// SCT120/// BKN150/// 09/09 Q1008
Loading
Personal Weather Stations






























Interactive Weather Map New forecast layout! Learn more

10-Day Weather Forecast

Advertisements
Track Severe Weather on mobile